createdAt,value
2019-04-06T00:01:18.993Z,51.40
2019-04-06T00:03:48.771Z,54.50
2019-04-06T00:06:18.818Z,52.30
2019-04-06T00:08:50.823Z,52.90
2019-04-06T00:11:20.627Z,52.17
2019-04-06T00:13:50.383Z,50.80
2019-04-06T00:16:20.607Z,51.63
2019-04-06T00:18:50.440Z,51.40
2019-04-06T00:21:20.945Z,54.63
2019-04-06T00:23:51.172Z,54.70
2019-04-06T00:26:21.546Z,52.17
2019-04-06T00:28:51.544Z,51.33
2019-04-06T00:31:39.053Z,53.77
2019-04-06T00:34:09.691Z,52.27
2019-04-06T00:36:39.393Z,51.60
2019-04-06T00:39:09.336Z,52.33
2019-04-06T00:41:39.188Z,51.47
2019-04-06T00:44:08.896Z,50.17
2019-04-06T00:46:38.601Z,53.33
2019-04-06T00:49:08.369Z,53.13
2019-04-06T00:51:38.088Z,51.70
2019-04-06T00:54:09.726Z,51.50
2019-04-06T00:56:39.528Z,51.57
2019-04-06T00:59:09.526Z,52.93
2019-04-06T01:01:41.540Z,51.43
2019-04-06T01:04:11.394Z,51.33
2019-04-06T01:06:41.116Z,51.90
2019-04-06T01:09:11.193Z,52.43
2019-04-06T01:11:41.330Z,50.77
2019-04-06T01:14:10.987Z,51.50
2019-04-06T01:16:40.557Z,51.00
2019-04-06T01:19:10.490Z,49.80
2019-04-06T01:21:40.352Z,49.10
2019-04-06T01:24:10.109Z,47.17
2019-04-06T01:26:39.830Z,50.13
2019-04-06T01:29:09.987Z,50.57
2019-04-06T01:31:39.791Z,52.90
2019-04-06T01:34:09.474Z,50.73
2019-04-06T01:36:39.221Z,49.67
2019-04-06T01:39:08.709Z,50.77
2019-04-06T01:41:38.524Z,51.40
2019-04-06T01:44:08.206Z,48.83
2019-04-06T01:46:37.987Z,49.13
2019-04-06T01:49:27.091Z,49.70
2019-04-06T01:51:56.751Z,50.40
2019-04-06T01:54:26.533Z,51.37
2019-04-06T01:56:56.321Z,47.03
2019-04-06T01:59:26.615Z,49.90
2019-04-06T02:01:57.861Z,51.33
2019-04-06T02:04:28.055Z,50.50
2019-04-06T02:06:57.666Z,51.40
2019-04-06T02:09:28.018Z,51.03
2019-04-06T02:11:58.037Z,51.50
2019-04-06T02:14:28.122Z,50.07
2019-04-06T02:16:57.886Z,52.47
2019-04-06T02:19:27.756Z,51.70
2019-04-06T02:21:57.519Z,52.40
2019-04-06T02:24:27.160Z,52.17
2019-04-06T02:26:57.196Z,50.93
2019-04-06T02:29:26.937Z,52.93
2019-04-06T02:32:04.973Z,52.93
2019-04-06T02:34:51.416Z,52.80
2019-04-06T02:37:35.063Z,50.70
2019-04-06T02:40:08.226Z,51.17
2019-04-06T02:42:47.945Z,54.23
2019-04-06T02:45:17.980Z,53.73
2019-04-06T02:47:49.340Z,52.13
2019-04-06T02:50:19.227Z,53.70
2019-04-06T02:52:51.046Z,55.47
2019-04-06T02:55:21.066Z,55.57
2019-04-06T02:58:10.241Z,53.90
2019-04-06T03:00:39.935Z,56.00
2019-04-06T03:03:09.670Z,54.03
2019-04-06T03:05:39.531Z,54.90
2019-04-06T03:08:09.417Z,55.00
2019-04-06T03:10:39.309Z,54.63
2019-04-06T03:13:08.989Z,57.43
2019-04-06T03:15:38.737Z,57.33
2019-04-06T03:18:10.392Z,53.93
2019-04-06T03:20:40.493Z,56.47
2019-04-06T03:23:10.273Z,55.57
2019-04-06T03:25:39.953Z,57.33
2019-04-06T03:28:09.656Z,59.70
2019-04-06T03:30:39.321Z,55.73
2019-04-06T03:33:09.362Z,56.30
2019-04-06T03:35:45.992Z,56.17
2019-04-06T03:38:11.574Z,57.57
2019-04-06T03:40:41.381Z,57.53
2019-04-06T03:43:11.334Z,56.47
2019-04-06T03:45:41.039Z,57.30
2019-04-06T03:48:10.817Z,57.33
2019-04-06T03:50:40.552Z,59.70
2019-04-06T03:53:10.316Z,57.67
2019-04-06T03:55:40.337Z,58.13
2019-04-06T03:58:11.648Z,57.60
2019-04-06T04:00:41.975Z,58.67
2019-04-06T04:03:12.754Z,58.43
2019-04-06T04:05:42.498Z,60.50
2019-04-06T04:08:12.330Z,58.43
2019-04-06T04:10:42.117Z,58.90
2019-04-06T04:13:12.057Z,60.13
2019-04-06T04:15:42.000Z,60.47
2019-04-06T04:18:11.832Z,58.60
2019-04-06T04:20:41.927Z,58.70
2019-04-06T04:23:11.827Z,60.90
2019-04-06T04:25:41.916Z,61.20
2019-04-06T04:28:11.948Z,60.00
2019-04-06T04:30:42.136Z,60.07
2019-04-06T04:33:11.921Z,59.83
2019-04-06T04:35:41.898Z,60.73
2019-04-06T04:38:11.813Z,60.73
2019-04-06T04:40:41.579Z,60.10
2019-04-06T04:43:11.322Z,59.13
2019-04-06T04:45:41.048Z,58.53
2019-04-06T04:48:11.003Z,57.87
2019-04-06T04:50:41.316Z,57.30
2019-04-06T04:53:11.062Z,56.20
2019-04-06T04:55:40.952Z,60.07
2019-04-06T04:58:10.744Z,58.47
2019-04-06T05:00:40.577Z,56.77
2019-04-06T05:03:10.321Z,60.03
2019-04-06T05:05:39.975Z,59.00
2019-04-06T05:08:09.731Z,57.93
2019-04-06T05:10:58.807Z,58.33
2019-04-06T05:13:28.665Z,59.80
2019-04-06T05:16:10.997Z,60.80
2019-04-06T05:18:43.810Z,58.43
2019-04-06T05:21:14.356Z,60.47
2019-04-06T05:23:45.085Z,58.03
2019-04-06T05:26:17.176Z,59.77
2019-04-06T05:28:47.132Z,57.77
2019-04-06T05:31:16.905Z,60.87
2019-04-06T05:33:46.940Z,59.17
2019-04-06T05:36:16.706Z,59.67
2019-04-06T05:38:46.915Z,57.77
2019-04-06T05:41:16.984Z,60.03
2019-04-06T05:43:47.182Z,61.00
2019-04-06T05:46:16.930Z,58.10
2019-04-06T05:48:47.045Z,58.60
2019-04-06T05:51:16.750Z,59.53
2019-04-06T05:53:46.670Z,60.83
2019-04-06T05:56:16.289Z,60.30
2019-04-06T05:58:46.266Z,60.30
2019-04-06T06:01:16.309Z,61.50
2019-04-06T06:03:46.094Z,59.50
2019-04-06T06:06:16.444Z,59.27
2019-04-06T06:08:46.163Z,60.77
2019-04-06T06:11:16.107Z,61.93
2019-04-06T06:13:45.737Z,59.57
2019-04-06T06:16:15.940Z,59.33
2019-04-06T06:18:45.660Z,61.67
2019-04-06T06:21:16.021Z,59.37
2019-04-06T06:23:45.828Z,59.53
2019-04-06T06:26:15.708Z,60.17
2019-04-06T06:28:45.753Z,63.57
2019-04-06T06:31:15.596Z,59.83
2019-04-06T06:33:45.365Z,62.23
2019-04-06T06:36:15.480Z,64.40
2019-04-06T06:38:45.829Z,62.00
2019-04-06T06:41:15.656Z,62.93
2019-04-06T06:43:45.753Z,62.97
2019-04-06T06:46:15.396Z,64.07
2019-04-06T06:48:45.188Z,62.20
2019-04-06T06:51:14.834Z,66.20
2019-04-06T06:53:44.731Z,62.77
2019-04-06T06:56:14.509Z,64.00
2019-04-06T06:58:44.215Z,64.63
2019-04-06T07:01:14.981Z,62.97
2019-04-06T07:03:46.370Z,63.93
2019-04-06T07:06:15.954Z,64.37
2019-04-06T07:08:45.805Z,66.53
2019-04-06T07:11:15.917Z,66.27
2019-04-06T07:13:45.653Z,62.13
2019-04-06T07:16:15.458Z,66.90
2019-04-06T07:18:45.415Z,64.97
2019-04-06T07:21:16.814Z,63.20
2019-04-06T07:23:46.416Z,61.93
2019-04-06T07:26:16.265Z,63.67
2019-04-06T07:28:46.178Z,61.33
2019-04-06T07:31:16.034Z,62.43
2019-04-06T07:33:45.839Z,62.07
2019-04-06T07:36:15.815Z,58.87
2019-04-06T07:38:45.348Z,59.80
2019-04-06T07:41:15.201Z,60.13
2019-04-06T07:43:44.973Z,64.73
2019-04-06T07:46:16.484Z,61.60
2019-04-06T07:48:46.496Z,59.40
2019-04-06T07:51:16.431Z,61.87
2019-04-06T07:53:46.254Z,60.93
2019-04-06T07:56:16.041Z,54.53
2019-04-06T07:58:49.124Z,55.03
2019-04-06T08:01:17.774Z,57.43
2019-04-06T08:03:47.503Z,59.63
2019-04-06T08:06:17.598Z,55.60
2019-04-06T08:08:47.321Z,55.33
2019-04-06T08:11:17.233Z,53.03
2019-04-06T08:13:47.160Z,49.00
2019-04-06T08:16:17.649Z,51.63
2019-04-06T08:18:47.734Z,51.10
2019-04-06T08:21:19.686Z,50.60
2019-04-06T08:23:49.758Z,50.87
2019-04-06T08:26:19.497Z,50.13
2019-04-06T08:28:59.746Z,49.33
2019-04-06T08:31:20.618Z,47.17
2019-04-06T08:33:50.326Z,45.50
2019-04-06T08:36:20.157Z,47.90
2019-04-06T08:38:49.895Z,45.30
2019-04-06T08:41:19.479Z,43.83
2019-04-06T08:43:49.440Z,42.73
2019-04-06T08:46:19.522Z,44.57
2019-04-06T08:48:49.411Z,43.93
2019-04-06T08:51:19.198Z,43.13
2019-04-06T08:53:48.960Z,43.47
2019-04-06T08:56:18.723Z,43.33
2019-04-06T08:58:48.943Z,43.50
2019-04-06T09:01:18.838Z,45.53
2019-04-06T09:03:48.676Z,46.63
2019-04-06T09:06:18.475Z,43.77
2019-04-06T09:08:48.318Z,44.37
2019-04-06T09:11:21.272Z,45.30
2019-04-06T09:13:52.886Z,44.43
2019-04-06T09:16:25.549Z,45.87
2019-04-06T09:18:55.308Z,43.67
2019-04-06T09:21:27.949Z,42.90
2019-04-06T09:23:58.719Z,44.37
2019-04-06T09:26:29.974Z,42.67
2019-04-06T09:29:02.838Z,44.40
2019-04-06T09:31:32.678Z,44.73
2019-04-06T09:34:03.321Z,43.97
2019-04-06T09:36:33.382Z,43.17
2019-04-06T09:39:04.497Z,41.90
2019-04-06T09:41:34.492Z,43.43
2019-04-06T09:44:06.464Z,43.77
2019-04-06T09:46:43.524Z,43.63
2019-04-06T09:51:56.935Z,44.27
2019-04-06T09:54:44.544Z,42.63
2019-04-06T09:57:18.574Z,42.93
2019-04-06T10:00:01.958Z,42.27
2019-04-06T10:02:36.413Z,42.57
2019-04-06T10:05:25.089Z,42.53
2019-04-06T10:08:02.275Z,42.30
2019-04-06T10:10:33.783Z,40.67
2019-04-06T10:13:11.031Z,42.17
2019-04-06T10:15:52.872Z,39.63
2019-04-06T10:18:26.698Z,41.17
2019-04-06T10:20:58.547Z,40.27
2019-04-06T10:23:38.694Z,38.77
2019-04-06T10:26:25.620Z,42.00
2019-04-06T10:28:59.719Z,40.17
2019-04-06T10:31:40.426Z,46.00
2019-04-06T10:34:18.520Z,38.10
2019-04-06T10:37:06.432Z,39.27
2019-04-06T10:39:41.102Z,39.60
2019-04-06T10:42:29.449Z,39.97
2019-04-06T10:45:00.899Z,40.40
2019-04-06T10:47:48.241Z,39.67
2019-04-06T10:50:18.045Z,40.57
2019-04-06T10:52:49.532Z,39.60
2019-04-06T10:55:25.188Z,39.50
2019-04-06T10:58:03.812Z,40.60
2019-04-06T11:00:35.843Z,39.60
2019-04-06T11:03:10.528Z,39.63
2019-04-06T11:05:39.973Z,37.97
2019-04-06T11:08:15.707Z,39.77
2019-04-06T11:10:47.315Z,39.23
2019-04-06T11:13:35.188Z,40.10
2019-04-06T11:16:16.942Z,38.97
2019-04-06T11:18:52.069Z,38.57
2019-04-06T11:21:40.859Z,38.73
2019-04-06T11:24:14.883Z,38.87
2019-04-06T11:27:02.380Z,39.23
2019-04-06T11:29:41.056Z,36.93
2019-04-06T11:32:28.395Z,37.13
2019-04-06T11:35:16.033Z,37.77
2019-04-06T11:38:03.672Z,37.37
2019-04-06T11:40:49.913Z,37.20
2019-04-06T11:43:30.756Z,35.40
2019-04-06T11:46:02.168Z,36.47
2019-04-06T11:48:40.696Z,35.47
2019-04-06T11:51:35.248Z,37.37
2019-04-06T11:54:11.218Z,35.63
2019-04-06T11:57:00.988Z,35.40
2019-04-06T11:59:45.383Z,35.97
2019-04-06T12:02:20.663Z,42.83
2019-04-06T12:04:59.193Z,37.57
2019-04-06T12:07:42.528Z,36.60
2019-04-06T12:10:20.261Z,37.37
2019-04-06T12:13:08.101Z,36.73
2019-04-06T12:15:48.981Z,37.00
2019-04-06T12:18:29.460Z,38.33
2019-04-06T12:21:07.569Z,35.60
2019-04-06T12:23:56.339Z,33.27
2019-04-06T12:26:30.866Z,33.03
2019-04-06T12:29:04.820Z,33.33
2019-04-06T12:31:37.116Z,32.43
2019-04-06T12:34:30.616Z,33.70
2019-04-06T12:37:05.285Z,31.27
2019-04-06T12:39:37.216Z,31.87
2019-04-06T12:42:11.657Z,32.60
2019-04-06T12:44:41.285Z,32.33
2019-04-06T12:47:10.984Z,32.00
2019-04-06T12:49:45.094Z,32.23
2019-04-06T12:52:32.795Z,32.67
2019-04-06T12:55:05.229Z,34.97
2019-04-06T12:57:43.415Z,33.43
2019-04-06T13:00:31.327Z,31.70
2019-04-06T13:03:00.767Z,31.67
2019-04-06T13:05:32.635Z,31.67
2019-04-06T13:08:04.381Z,30.93
2019-04-06T13:10:51.883Z,29.23
2019-04-06T13:13:40.127Z,30.03
2019-04-06T13:16:11.549Z,29.17
2019-04-06T13:18:58.155Z,29.10
2019-04-06T13:21:46.045Z,27.80
2019-04-06T13:24:27.120Z,27.43
2019-04-06T13:26:57.299Z,28.20
2019-04-06T13:29:44.642Z,27.40
2019-04-06T13:32:24.954Z,26.47
2019-04-06T13:34:57.437Z,28.80
2019-04-06T13:37:30.185Z,27.60
2019-04-06T13:40:05.419Z,26.87
2019-04-06T13:42:47.256Z,26.40
2019-04-06T13:45:25.052Z,25.13
2019-04-06T13:48:08.354Z,24.37
2019-04-06T13:50:39.762Z,24.77
2019-04-06T13:53:17.235Z,25.23
2019-04-06T13:55:48.695Z,24.07
2019-04-06T13:58:29.397Z,23.80
2019-04-06T14:01:12.635Z,23.00
2019-04-06T14:03:38.116Z,21.60
2019-04-06T14:06:12.720Z,22.27
2019-04-06T14:08:53.233Z,21.37
2019-04-06T14:11:28.872Z,17.70
2019-04-06T14:14:03.247Z,18.50
2019-04-06T14:16:49.549Z,17.60
2019-04-06T14:19:32.610Z,20.20
2019-04-06T14:22:11.281Z,18.23
2019-04-06T14:25:05.121Z,18.63
2019-04-06T14:27:39.105Z,18.53
2019-04-06T14:30:11.304Z,18.00
2019-04-06T14:32:53.261Z,19.83
2019-04-06T14:35:42.285Z,17.00
2019-04-06T14:38:14.247Z,16.70
2019-04-06T14:40:54.684Z,17.47
2019-04-06T14:43:43.450Z,17.13
2019-04-06T14:46:33.242Z,16.07
2019-04-06T14:49:29.400Z,14.30
2019-04-06T14:51:54.098Z,13.67
2019-04-06T14:54:27.003Z,14.10
2019-04-06T14:57:04.784Z,13.70
2019-04-06T14:59:45.237Z,15.40
2019-04-06T15:02:25.392Z,13.93
2019-04-06T15:04:54.857Z,14.50
2019-04-06T15:07:27.076Z,13.67
2019-04-06T15:10:10.801Z,13.37
2019-04-06T15:12:42.441Z,13.87
2019-04-06T15:15:14.188Z,13.47
2019-04-06T15:17:54.294Z,13.87
2019-04-06T15:20:28.276Z,13.07
2019-04-06T15:23:09.181Z,13.23
2019-04-06T15:25:46.734Z,14.13
2019-04-06T15:28:18.877Z,13.30
2019-04-06T15:30:57.665Z,15.43
2019-04-06T15:33:27.125Z,14.23
2019-04-06T15:36:14.742Z,13.57
2019-04-06T15:39:03.762Z,13.00
2019-04-06T15:41:38.813Z,13.30
2019-04-06T15:44:11.434Z,12.80
2019-04-06T15:46:55.409Z,12.97
2019-04-06T15:49:35.956Z,11.83
2019-04-06T15:52:20.852Z,12.00
2019-04-06T15:54:53.455Z,11.27
2019-04-06T15:57:37.911Z,10.77
2019-04-06T16:00:16.652Z,10.87
2019-04-06T16:03:02.280Z,11.57
2019-04-06T16:05:46.817Z,11.53
2019-04-06T16:08:21.962Z,11.10
2019-04-06T16:11:12.144Z,12.00
2019-04-06T16:13:49.210Z,11.30
2019-04-06T16:16:29.969Z,11.60
2019-04-06T16:19:09.224Z,12.70
2019-04-06T16:21:44.863Z,12.43
2019-04-06T16:24:18.118Z,13.03
2019-04-06T16:27:01.371Z,13.07
2019-04-06T16:29:32.999Z,13.60
2019-04-06T16:32:11.649Z,13.13
2019-04-06T16:34:53.919Z,15.33
2019-04-06T16:37:32.582Z,17.13
2019-04-06T16:40:18.007Z,16.97
2019-04-06T16:43:05.518Z,17.47
2019-04-06T16:45:39.100Z,18.60
2019-04-06T16:48:18.698Z,17.60
2019-04-06T16:51:06.613Z,18.67
2019-04-06T16:53:56.694Z,18.90
2019-04-06T16:56:46.278Z,19.53
2019-04-06T16:59:20.272Z,22.23
2019-04-06T17:02:02.160Z,21.87
2019-04-06T17:04:36.786Z,21.87
2019-04-06T17:07:18.423Z,22.50
2019-04-06T17:10:07.020Z,24.40
2019-04-06T17:12:38.429Z,25.80
2019-04-06T17:15:20.459Z,24.70
2019-04-06T17:18:08.711Z,26.63
2019-04-06T17:20:49.373Z,25.93
2019-04-06T17:23:22.135Z,28.87
2019-04-06T17:25:51.971Z,26.77
2019-04-06T17:28:23.277Z,28.00
2019-04-06T17:30:58.008Z,28.10
2019-04-06T17:33:29.449Z,37.67
2019-04-06T17:36:17.128Z,29.70
2019-04-06T17:38:54.497Z,29.43
2019-04-06T17:41:26.480Z,29.07
2019-04-06T17:44:02.299Z,30.53
2019-04-06T17:46:50.812Z,30.30
2019-04-06T17:49:26.364Z,30.27
2019-04-06T17:52:14.036Z,30.80
2019-04-06T17:54:55.844Z,31.73
2019-04-06T17:57:27.790Z,32.03
2019-04-06T18:00:01.162Z,31.33
2019-04-06T18:02:32.500Z,30.70
2019-04-06T18:05:09.836Z,32.97
2019-04-06T18:07:44.443Z,31.70
2019-04-06T18:10:27.908Z,32.17
2019-04-06T18:12:57.659Z,32.43
2019-04-06T18:15:27.577Z,31.43
2019-04-06T18:17:57.350Z,31.73
2019-04-06T18:20:28.054Z,31.70
2019-04-06T18:22:58.166Z,31.37
2019-04-06T18:25:30.305Z,33.50
2019-04-06T18:28:00.533Z,33.07
2019-04-06T18:30:32.674Z,34.47
2019-04-06T18:33:10.440Z,32.13
2019-04-06T18:35:40.625Z,34.70
2019-04-06T18:38:12.081Z,34.23
2019-04-06T18:40:41.901Z,35.17
2019-04-06T18:43:11.916Z,33.50
2019-04-06T18:45:42.063Z,34.17
2019-04-06T18:48:12.000Z,32.73
2019-04-06T18:50:41.953Z,33.50
2019-04-06T18:53:11.657Z,31.97
2019-04-06T18:55:41.559Z,34.27
2019-04-06T18:58:13.074Z,34.53
2019-04-06T19:00:42.833Z,34.37
2019-04-06T19:03:15.380Z,36.10
2019-04-06T19:05:44.291Z,36.63
2019-04-06T19:08:14.305Z,35.73
2019-04-06T19:10:44.639Z,34.93
2019-04-06T19:13:15.948Z,35.70
2019-04-06T19:15:45.808Z,35.00
2019-04-06T19:18:15.830Z,35.23
2019-04-06T19:20:46.127Z,34.50
2019-04-06T19:23:15.990Z,35.90
2019-04-06T19:25:48.944Z,34.93
2019-04-06T19:28:19.237Z,36.10
2019-04-06T19:30:50.371Z,35.87
2019-04-06T19:33:39.360Z,36.30
2019-04-06T19:36:09.200Z,35.90
2019-04-06T19:38:39.180Z,36.90
2019-04-06T19:41:09.243Z,37.03
2019-04-06T19:43:40.989Z,38.77
2019-04-06T19:46:10.411Z,39.50
2019-04-06T19:48:40.756Z,37.93
2019-04-06T19:51:11.366Z,37.23
2019-04-06T19:53:41.155Z,39.07
2019-04-06T19:56:12.029Z,40.27
2019-04-06T19:58:41.908Z,39.00
2019-04-06T20:01:11.584Z,39.47
2019-04-06T20:03:41.502Z,41.73
2019-04-06T20:06:11.411Z,44.20
2019-04-06T20:08:41.653Z,42.70
2019-04-06T20:11:11.443Z,41.73
2019-04-06T20:13:41.234Z,41.90
2019-04-06T20:16:11.288Z,41.43
2019-04-06T20:18:41.596Z,39.73
2019-04-06T20:21:11.569Z,40.20
2019-04-06T20:23:41.337Z,40.00
2019-04-06T20:26:11.559Z,40.70
2019-04-06T20:28:41.590Z,41.23
2019-04-06T20:31:11.586Z,42.27
2019-04-06T20:33:50.922Z,43.20
2019-04-06T20:36:13.156Z,42.77
2019-04-06T20:38:43.438Z,41.67
2019-04-06T20:41:13.707Z,44.20
2019-04-06T20:43:44.499Z,44.47
2019-04-06T20:46:15.207Z,46.17
2019-04-06T20:48:45.832Z,60.70
2019-04-06T20:51:16.382Z,48.87
2019-04-06T20:53:46.159Z,63.13
2019-04-06T20:56:16.096Z,64.53
2019-04-06T20:58:45.917Z,100.80
2019-04-06T21:01:15.966Z,48.07
2019-04-06T21:03:45.830Z,58.90
2019-04-06T21:06:15.629Z,46.13
2019-04-06T21:08:45.968Z,49.73
2019-04-06T21:11:16.193Z,46.80
2019-04-06T21:13:46.137Z,46.10
2019-04-06T21:16:16.098Z,46.83
2019-04-06T21:18:46.079Z,45.07
2019-04-06T21:21:16.574Z,48.40
2019-04-06T21:23:46.895Z,45.47
2019-04-06T21:26:17.151Z,47.23
2019-04-06T21:28:46.963Z,46.53
2019-04-06T21:31:17.724Z,46.87
2019-04-06T21:33:48.228Z,47.00
2019-04-06T21:36:19.057Z,52.00
2019-04-06T21:38:49.415Z,49.47
2019-04-06T21:41:19.592Z,47.37
2019-04-06T21:43:49.531Z,47.00
2019-04-06T21:46:19.412Z,47.03
2019-04-06T21:48:49.466Z,44.70
2019-04-06T21:51:19.650Z,45.33
2019-04-06T21:53:49.236Z,46.60
2019-04-06T21:56:19.190Z,46.83
2019-04-06T21:58:48.862Z,44.77
2019-04-06T22:01:20.429Z,45.53
2019-04-06T22:03:50.667Z,46.77
2019-04-06T22:06:20.687Z,45.83
2019-04-06T22:08:51.170Z,45.27
2019-04-06T22:11:21.119Z,46.37
2019-04-06T22:13:51.238Z,45.77
2019-04-06T22:16:30.324Z,48.13
2019-04-06T22:19:01.130Z,48.83
2019-04-06T22:21:30.855Z,47.77
2019-04-06T22:24:01.195Z,47.20
2019-04-06T22:26:31.074Z,47.77
2019-04-06T22:29:01.834Z,47.63
2019-04-06T22:31:31.532Z,47.57
2019-04-06T22:34:02.171Z,48.33
2019-04-06T22:36:31.988Z,46.37
2019-04-06T22:39:02.173Z,49.57
2019-04-06T22:41:31.932Z,48.10
2019-04-06T22:44:02.096Z,49.50
2019-04-06T22:46:31.718Z,49.17
2019-04-06T22:49:02.963Z,50.47
2019-04-06T22:51:32.794Z,52.63
2019-04-06T22:54:02.760Z,53.07
2019-04-06T22:56:32.715Z,52.07
2019-04-06T22:59:02.973Z,48.70
2019-04-06T23:01:34.625Z,50.30
2019-04-06T23:04:04.571Z,50.70
2019-04-06T23:06:35.867Z,48.67
2019-04-06T23:09:08.960Z,51.67
2019-04-06T23:11:38.847Z,50.60
2019-04-06T23:14:08.772Z,49.37
2019-04-06T23:16:39.179Z,49.53
2019-04-06T23:19:09.653Z,50.50
2019-04-06T23:21:39.802Z,51.13
2019-04-06T23:24:10.082Z,49.93
2019-04-06T23:26:41.028Z,49.50
2019-04-06T23:29:11.199Z,49.87
2019-04-06T23:31:41.002Z,51.23
2019-04-06T23:34:11.693Z,49.87
2019-04-06T23:36:42.047Z,51.53
2019-04-06T23:39:12.338Z,50.60
2019-04-06T23:41:42.729Z,52.00
2019-04-06T23:44:13.348Z,52.17
2019-04-06T23:46:43.461Z,52.57
2019-04-06T23:49:13.437Z,52.53
2019-04-06T23:51:43.218Z,52.00
2019-04-06T23:54:13.546Z,51.40
2019-04-06T23:56:43.759Z,51.83
2019-04-06T23:59:13.782Z,53.60
